createdAt,value
2019-01-04T00:01:18.103Z,101451.66
2019-01-04T00:02:19.324Z,101455.31
2019-01-04T00:03:20.529Z,101446.06
2019-01-04T00:04:21.653Z,101443.37
2019-01-04T00:05:22.862Z,101430.26
2019-01-04T00:06:24.080Z,101435.97
2019-01-04T00:07:25.192Z,101432.94
2019-01-04T00:08:26.303Z,101432.58
2019-01-04T00:09:27.433Z,101434.91
2019-01-04T00:10:28.545Z,101425.17
2019-01-04T00:11:29.656Z,101427.85
2019-01-04T00:12:30.769Z,101423.48
2019-01-04T00:13:31.884Z,101419.46
2019-01-04T00:14:33.716Z,101416.42
2019-01-04T00:15:34.828Z,101423.48
2019-01-04T00:16:35.932Z,101428.95
2019-01-04T00:17:37.625Z,101427.14
2019-01-04T00:18:38.728Z,101435.65
2019-01-04T00:19:39.955Z,101424.46
2019-01-04T00:20:41.064Z,101420.09
2019-01-04T00:21:42.182Z,101426.63
2019-01-04T00:22:43.316Z,101429.46
2019-01-04T00:23:44.429Z,101423.23
2019-01-04T00:24:45.552Z,101420.09
2019-01-04T00:25:46.772Z,101423.23
2019-01-04T00:26:47.890Z,101415.20
2019-01-04T00:27:49.000Z,101413.03
2019-01-04T00:28:50.116Z,101417.05
2019-01-04T00:29:51.341Z,101413.87
2019-01-04T00:30:52.449Z,101417.05
2019-01-04T00:31:53.572Z,101410.72
2019-01-04T00:32:54.754Z,101407.17
2019-01-04T00:33:55.864Z,101413.39
2019-01-04T00:34:57.100Z,101406.70
2019-01-04T00:35:58.214Z,101421.42
2019-01-04T00:36:59.323Z,101422.77
2019-01-04T00:38:00.437Z,101421.42
2019-01-04T00:39:01.651Z,101426.78
2019-01-04T00:40:05.187Z,101428.12
2019-01-04T00:41:06.297Z,101426.28
2019-01-04T00:42:07.416Z,101429.11
2019-01-04T00:43:08.531Z,101427.61
2019-01-04T00:44:09.641Z,101424.11
2019-01-04T00:45:10.861Z,101426.42
2019-01-04T00:46:12.077Z,101428.12
2019-01-04T00:47:13.194Z,101427.61
2019-01-04T00:48:14.304Z,101421.78
2019-01-04T00:49:15.412Z,101420.56
2019-01-04T00:50:16.536Z,101428.95
2019-01-04T00:51:17.649Z,101425.45
2019-01-04T00:52:18.763Z,101427.26
2019-01-04T00:53:19.875Z,101421.42
2019-01-04T00:54:21.087Z,101426.78
2019-01-04T00:55:42.917Z,101423.75
2019-01-04T00:57:02.655Z,101434.46
2019-01-04T00:58:22.829Z,101429.11
2019-01-04T00:59:53.597Z,101424.22
2019-01-04T01:01:07.622Z,101419.02
2019-01-04T01:02:27.680Z,101410.75
2019-01-04T01:03:54.824Z,101410.03
2019-01-04T01:05:31.996Z,101412.51
2019-01-04T01:07:02.536Z,101414.95
2019-01-04T01:08:22.288Z,101418.25
2019-01-04T01:09:30.116Z,101421.55
2019-01-04T01:10:37.836Z,101428.88
2019-01-04T01:12:08.801Z,101427.30
2019-01-04T01:13:32.787Z,101428.27
2019-01-04T01:15:08.089Z,101431.31
2019-01-04T01:16:15.560Z,101422.45
2019-01-04T01:17:20.568Z,101425.95
2019-01-04T01:18:28.357Z,101429.97
2019-01-04T01:19:53.906Z,101427.30
2019-01-04T01:21:30.540Z,101429.61
2019-01-04T01:22:56.394Z,101425.59
2019-01-04T01:24:34.476Z,101424.27
2019-01-04T01:25:58.922Z,101420.36
2019-01-04T01:27:03.634Z,101419.65
2019-01-04T01:28:41.723Z,101422.33
2019-01-04T01:30:07.728Z,101429.49
2019-01-04T01:31:21.451Z,101430.83
2019-01-04T01:32:47.585Z,101433.15
2019-01-04T01:34:10.704Z,101430.11
2019-01-04T01:35:35.085Z,101437.16
2019-01-04T01:36:42.811Z,101430.47
2019-01-04T01:37:59.904Z,101424.77
2019-01-04T01:39:25.977Z,101431.45
2019-01-04T01:40:36.866Z,101413.58
2019-01-04T01:42:01.060Z,101415.75
2019-01-04T01:43:18.190Z,101417.09
2019-01-04T01:44:45.766Z,101419.30
2019-01-04T01:46:25.620Z,101410.28
2019-01-04T01:47:32.487Z,101411.98
2019-01-04T01:48:37.208Z,101417.17
2019-01-04T01:49:41.921Z,101412.33
2019-01-04T01:51:09.441Z,101411.47
2019-01-04T01:52:16.702Z,101414.14
2019-01-04T01:53:17.818Z,101407.34
2019-01-04T01:54:18.936Z,101405.12
2019-01-04T01:55:20.051Z,101394.93
2019-01-04T01:56:21.183Z,101401.98
2019-01-04T01:57:22.296Z,101399.30
2019-01-04T01:58:23.415Z,101403.20
2019-01-04T01:59:24.635Z,101400.52
2019-01-04T02:00:25.748Z,101396.51
2019-01-04T02:01:26.874Z,101391.51
2019-01-04T02:02:27.989Z,101395.53
2019-01-04T02:03:29.101Z,101396.39
2019-01-04T02:04:30.211Z,101393.23
2019-01-04T02:05:31.324Z,101386.16
2019-01-04T02:06:32.578Z,101387.73
2019-01-04T02:07:33.736Z,101378.88
2019-01-04T02:08:34.903Z,101370.48
2019-01-04T02:09:36.017Z,101378.88
2019-01-04T02:10:37.128Z,101378.36
2019-01-04T02:11:38.537Z,101377.89
2019-01-04T02:12:39.651Z,101377.38
2019-01-04T02:13:40.759Z,101375.57
2019-01-04T02:14:41.872Z,101367.18
2019-01-04T02:15:42.990Z,101375.06
2019-01-04T02:16:44.413Z,101372.89
2019-01-04T02:17:45.525Z,101373.25
2019-01-04T02:18:46.636Z,101362.53
2019-01-04T02:19:47.751Z,101365.69
2019-01-04T02:20:48.869Z,101369.23
2019-01-04T02:21:50.335Z,101373.60
2019-01-04T02:22:51.452Z,101366.41
2019-01-04T02:23:52.569Z,101375.30
2019-01-04T02:24:53.782Z,101368.25
2019-01-04T02:25:54.996Z,101363.25
2019-01-04T02:26:56.124Z,101359.23
2019-01-04T02:27:57.340Z,101360.22
2019-01-04T02:28:58.458Z,101352.89
2019-01-04T02:29:59.564Z,101362.27
2019-01-04T02:31:00.676Z,101355.22
2019-01-04T02:32:01.915Z,101344.35
2019-01-04T02:33:03.039Z,101347.19
2019-01-04T02:34:04.155Z,101350.22
2019-01-04T02:35:05.266Z,101352.89
2019-01-04T02:36:06.383Z,101356.91
2019-01-04T02:37:07.785Z,101352.89
2019-01-04T02:38:08.906Z,101347.54
2019-01-04T02:39:10.023Z,101349.86
2019-01-04T02:40:11.132Z,101349.35
2019-01-04T02:41:12.323Z,101352.03
2019-01-04T02:42:13.778Z,101346.67
2019-01-04T02:43:14.892Z,101341.83
2019-01-04T02:44:16.009Z,101352.38
2019-01-04T02:45:17.224Z,101348.87
2019-01-04T02:46:18.337Z,101346.55
2019-01-04T02:47:19.472Z,101346.20
2019-01-04T02:48:20.588Z,101336.20
2019-01-04T02:49:21.705Z,101340.84
2019-01-04T02:50:22.819Z,101341.55
2019-01-04T02:51:23.933Z,101346.91
2019-01-04T02:52:25.563Z,101345.57
2019-01-04T02:53:26.681Z,101338.02
2019-01-04T02:54:27.793Z,101341.55
2019-01-04T02:55:28.909Z,101342.39
2019-01-04T02:56:30.136Z,101341.91
2019-01-04T02:57:31.265Z,101337.03
2019-01-04T02:58:32.389Z,101330.84
2019-01-04T02:59:33.504Z,101334.36
2019-01-04T03:00:34.737Z,101333.52
2019-01-04T03:01:35.840Z,101330.84
2019-01-04T03:02:37.265Z,101325.49
2019-01-04T03:03:38.378Z,101320.97
2019-01-04T03:04:39.495Z,101322.30
2019-01-04T03:05:40.712Z,101315.77
2019-01-04T03:06:41.827Z,101320.61
2019-01-04T03:07:42.953Z,101314.43
2019-01-04T03:08:44.073Z,101310.05
2019-01-04T03:09:45.192Z,101313.56
2019-01-04T03:10:46.301Z,101304.70
2019-01-04T03:11:52.265Z,101308.72
2019-01-04T03:12:53.720Z,101309.19
2019-01-04T03:13:54.839Z,101298.99
2019-01-04T03:14:55.949Z,101303.84
2019-01-04T03:15:57.172Z,101303.48
2019-01-04T03:16:58.288Z,101300.80
2019-01-04T03:17:59.799Z,101286.59
2019-01-04T03:19:00.922Z,101297.77
2019-01-04T03:20:02.540Z,101293.76
2019-01-04T03:21:03.651Z,101286.71
2019-01-04T03:22:04.791Z,101291.08
2019-01-04T03:23:06.093Z,101287.58
2019-01-04T03:24:07.207Z,101288.41
2019-01-04T03:25:08.320Z,101276.36
2019-01-04T03:26:09.442Z,101284.39
2019-01-04T03:27:10.556Z,101271.52
2019-01-04T03:28:11.968Z,101283.56
2019-01-04T03:29:13.090Z,101270.17
2019-01-04T03:30:14.204Z,101266.16
2019-01-04T03:31:15.323Z,101265.65
2019-01-04T03:32:16.492Z,101263.48
2019-01-04T03:33:17.631Z,101268.83
2019-01-04T03:34:18.750Z,101256.79
2019-01-04T03:35:19.871Z,101256.79
2019-01-04T03:36:20.985Z,101260.64
2019-01-04T03:37:22.102Z,101249.11
2019-01-04T03:38:23.388Z,101256.16
2019-01-04T03:39:24.508Z,101250.80
2019-01-04T03:40:25.615Z,101246.43
2019-01-04T03:41:26.725Z,101248.59
2019-01-04T03:42:27.836Z,101249.11
2019-01-04T03:43:29.166Z,101252.61
2019-01-04T03:44:30.275Z,101237.41
2019-01-04T03:45:31.392Z,101233.40
2019-01-04T03:46:32.609Z,101240.92
2019-01-04T03:47:33.729Z,101227.06
2019-01-04T03:48:35.032Z,101235.09
2019-01-04T03:49:36.146Z,101235.56
2019-01-04T03:50:37.258Z,101233.75
2019-01-04T03:51:38.374Z,101237.77
2019-01-04T03:52:39.483Z,101231.55
2019-01-04T03:53:40.614Z,101226.20
2019-01-04T03:54:41.886Z,101229.38
2019-01-04T03:55:43.093Z,101233.75
2019-01-04T03:56:44.210Z,101220.84
2019-01-04T03:57:45.326Z,101226.20
2019-01-04T03:58:46.556Z,101220.02
2019-01-04T03:59:47.672Z,101217.34
2019-01-04T04:00:48.889Z,101215.64
2019-01-04T04:01:50.004Z,101217.34
2019-01-04T04:02:51.121Z,101217.34
2019-01-04T04:03:52.248Z,101204.94
2019-01-04T04:04:53.367Z,101206.27
2019-01-04T04:05:54.479Z,101207.61
2019-01-04T04:06:55.599Z,101209.94
2019-01-04T04:07:56.708Z,101212.27
2019-01-04T04:08:57.840Z,101207.73
2019-01-04T04:09:58.952Z,101206.55
2019-01-04T04:11:00.072Z,101203.37
2019-01-04T04:12:01.176Z,101210.06
2019-01-04T04:13:02.301Z,101201.20
2019-01-04T04:14:03.699Z,101190.14
2019-01-04T04:15:04.908Z,101189.16
2019-01-04T04:16:06.025Z,101195.14
2019-01-04T04:17:07.143Z,101186.95
2019-01-04T04:18:08.258Z,101179.55
2019-01-04T04:19:09.564Z,101192.46
2019-01-04T04:20:10.665Z,101185.38
2019-01-04T04:21:11.788Z,101181.37
2019-01-04T04:22:12.899Z,101186.37
2019-01-04T04:23:14.027Z,101186.72
2019-01-04T04:24:15.193Z,101186.37
2019-01-04T04:25:16.373Z,101187.23
2019-01-04T04:26:17.487Z,101180.03
2019-01-04T04:27:18.606Z,101178.34
2019-01-04T04:28:19.720Z,101170.30
2019-01-04T04:29:21.136Z,101177.35
2019-01-04T04:30:22.349Z,101171.17
2019-01-04T04:31:23.474Z,101168.49
2019-01-04T04:32:24.578Z,101172.51
2019-01-04T04:33:25.801Z,101164.95
2019-01-04T04:34:26.930Z,101163.14
2019-01-04T04:35:28.039Z,101167.98
2019-01-04T04:36:29.158Z,101165.81
2019-01-04T04:37:30.270Z,101150.23
2019-01-04T04:38:31.377Z,101157.44
2019-01-04T04:39:32.499Z,101156.92
2019-01-04T04:40:33.616Z,101155.94
2019-01-04T04:41:34.730Z,101154.25
2019-01-04T04:42:35.840Z,101157.28
2019-01-04T04:43:37.060Z,101152.30
2019-01-04T04:44:38.500Z,101155.58
2019-01-04T04:45:39.618Z,101154.12
2019-01-04T04:46:40.731Z,101126.49
2019-01-04T04:47:41.948Z,101140.73
2019-01-04T04:48:43.055Z,101141.22
2019-01-04T04:49:44.187Z,101149.25
2019-01-04T04:50:45.297Z,101145.61
2019-01-04T04:51:46.511Z,101145.97
2019-01-04T04:52:47.628Z,101145.61
2019-01-04T04:53:48.751Z,101139.28
2019-01-04T04:54:50.249Z,101143.64
2019-01-04T04:55:51.364Z,101147.66
2019-01-04T04:56:52.996Z,101130.26
2019-01-04T04:57:54.114Z,101135.27
2019-01-04T04:58:55.293Z,101130.73
2019-01-04T04:59:56.419Z,101135.61
2019-01-04T05:00:57.536Z,101138.99
2019-01-04T05:01:58.646Z,101143.48
2019-01-04T05:02:59.758Z,101137.30
2019-01-04T05:04:00.895Z,101134.63
2019-01-04T05:05:02.510Z,101133.13
2019-01-04T05:06:03.630Z,101126.95
2019-01-04T05:07:04.739Z,101132.30
2019-01-04T05:08:05.862Z,101129.63
2019-01-04T05:09:06.968Z,101131.79
2019-01-04T05:10:08.099Z,101125.61
2019-01-04T05:11:09.215Z,101127.42
2019-01-04T05:12:10.332Z,101125.09
2019-01-04T05:13:11.544Z,101121.94
2019-01-04T05:14:12.665Z,101128.13
2019-01-04T05:15:13.867Z,101128.28
2019-01-04T05:16:14.981Z,101126.44
2019-01-04T05:17:16.095Z,101120.73
2019-01-04T05:18:17.209Z,101131.44
2019-01-04T05:19:18.319Z,101123.92
2019-01-04T05:20:19.446Z,101131.95
2019-01-04T05:21:20.660Z,101129.27
2019-01-04T05:22:21.772Z,101127.07
2019-01-04T05:23:22.897Z,101124.05
2019-01-04T05:24:24.118Z,101120.89
2019-01-04T05:25:25.349Z,101120.38
2019-01-04T05:26:26.480Z,101122.70
2019-01-04T05:27:27.580Z,101129.91
2019-01-04T05:28:28.697Z,101126.24
2019-01-04T05:29:29.814Z,101125.03
2019-01-04T05:30:34.287Z,101121.87
2019-01-04T05:31:35.400Z,101125.03
2019-01-04T05:32:36.516Z,101120.03
2019-01-04T05:33:37.643Z,101125.89
2019-01-04T05:34:38.758Z,101119.20
2019-01-04T05:35:39.890Z,101121.87
2019-01-04T05:36:41.008Z,101123.56
2019-01-04T05:37:42.122Z,101111.16
2019-01-04T05:38:43.247Z,101114.32
2019-01-04T05:39:44.358Z,101115.53
2019-01-04T05:40:45.656Z,101111.52
2019-01-04T05:41:46.848Z,101113.69
2019-01-04T05:42:47.967Z,101112.86
2019-01-04T05:43:49.089Z,101099.59
2019-01-04T05:44:50.202Z,101103.48
2019-01-04T05:45:51.330Z,101107.15
2019-01-04T05:46:52.443Z,101112.50
2019-01-04T05:47:53.560Z,101110.18
2019-01-04T05:48:54.788Z,101110.66
2019-01-04T05:49:55.899Z,101111.52
2019-01-04T05:50:57.415Z,101116.02
2019-01-04T05:51:58.559Z,101100.45
2019-01-04T05:52:59.674Z,101114.67
2019-01-04T05:54:00.789Z,101109.19
2019-01-04T05:55:01.907Z,101106.99
2019-01-04T05:56:03.174Z,101104.31
2019-01-04T05:57:04.286Z,101102.50
2019-01-04T05:58:05.408Z,101111.87
2019-01-04T05:59:06.519Z,101102.50
2019-01-04T06:00:09.134Z,101097.15
2019-01-04T06:01:10.378Z,101102.85
2019-01-04T06:02:11.493Z,101096.64
2019-01-04T06:03:12.608Z,101099.31
2019-01-04T06:04:13.823Z,101093.95
2019-01-04T06:05:14.939Z,101087.62
2019-01-04T06:06:16.249Z,101091.28
2019-01-04T06:07:17.364Z,101098.84
2019-01-04T06:08:18.476Z,101088.13
2019-01-04T06:09:19.588Z,101091.16
2019-01-04T06:10:20.702Z,101086.16
2019-01-04T06:11:21.831Z,101089.18
2019-01-04T06:12:22.944Z,101084.87
2019-01-04T06:13:24.060Z,101088.26
2019-01-04T06:14:25.171Z,101087.11
2019-01-04T06:15:26.289Z,101090.36
2019-01-04T06:16:27.584Z,101080.70
2019-01-04T06:17:28.805Z,101090.14
2019-01-04T06:18:29.924Z,101084.84
2019-01-04T06:19:31.041Z,101073.84
2019-01-04T06:20:32.152Z,101079.27
2019-01-04T06:21:33.392Z,101078.33
2019-01-04T06:22:34.508Z,101071.22
2019-01-04T06:23:35.649Z,101061.42
2019-01-04T06:24:36.752Z,101076.21
2019-01-04T06:25:37.863Z,101070.40
2019-01-04T06:26:39.001Z,101074.00
2019-01-04T06:27:40.119Z,101072.07
2019-01-04T06:28:41.232Z,101068.97
2019-01-04T06:29:42.593Z,101052.32
2019-01-04T06:30:43.807Z,101071.94
2019-01-04T06:31:45.106Z,101069.72
2019-01-04T06:32:46.213Z,101066.09
2019-01-04T06:33:47.348Z,101068.66
2019-01-04T06:34:48.475Z,101066.89
2019-01-04T06:35:49.589Z,101059.25
2019-01-04T06:36:51.072Z,101045.41
2019-01-04T06:37:52.185Z,101055.66
2019-01-04T06:38:53.298Z,101050.21
2019-01-04T06:39:54.411Z,101054.28
2019-01-04T06:40:55.529Z,101057.34
2019-01-04T06:41:56.845Z,101059.94
2019-01-04T06:42:57.960Z,101046.22
2019-01-04T06:43:59.079Z,101049.77
2019-01-04T06:45:00.246Z,101052.53
2019-01-04T06:46:01.496Z,101049.89
2019-01-04T06:47:14.115Z,101052.09
2019-01-04T06:48:15.231Z,101045.08
2019-01-04T06:49:16.343Z,101054.68
2019-01-04T06:50:17.566Z,101057.88
2019-01-04T06:51:18.682Z,101050.87
2019-01-04T06:52:19.920Z,101049.77
2019-01-04T06:53:21.032Z,101050.31
2019-01-04T06:54:59.277Z,101047.46
2019-01-04T06:56:00.394Z,101047.66
2019-01-04T06:57:01.513Z,101047.02
2019-01-04T06:58:02.805Z,101050.38
2019-01-04T06:59:03.912Z,101044.50
2019-01-04T07:00:06.628Z,101051.22
2019-01-04T07:01:08.216Z,101037.65
2019-01-04T07:02:09.435Z,101049.08
2019-01-04T07:03:10.560Z,101050.42
2019-01-04T07:04:11.676Z,101052.11
2019-01-04T07:05:12.788Z,101056.48
2019-01-04T07:06:13.896Z,101047.42
2019-01-04T07:07:15.008Z,101041.40
2019-01-04T07:08:16.280Z,101051.80
2019-01-04T07:09:17.394Z,101048.11
2019-01-04T07:10:18.512Z,101049.31
2019-01-04T07:11:19.629Z,101045.77
2019-01-04T07:12:20.736Z,101052.34
2019-01-04T07:13:22.274Z,101051.34
2019-01-04T07:14:23.368Z,101045.45
2019-01-04T07:15:24.529Z,101056.20
2019-01-04T07:16:25.595Z,101047.66
2019-01-04T07:17:26.714Z,101042.73
2019-01-04T07:18:28.029Z,101049.83
2019-01-04T07:19:29.140Z,101041.78
2019-01-04T07:20:30.260Z,101044.80
2019-01-04T07:21:31.382Z,101050.52
2019-01-04T07:22:32.505Z,101038.95
2019-01-04T07:23:33.800Z,101041.12
2019-01-04T07:24:34.921Z,101043.80
2019-01-04T07:25:36.028Z,101045.84
2019-01-04T07:26:37.142Z,101038.78
2019-01-04T07:27:38.261Z,101041.32
2019-01-04T07:28:39.385Z,101043.49
2019-01-04T07:29:40.501Z,101044.18
2019-01-04T07:30:41.615Z,101038.81
2019-01-04T07:31:42.745Z,101046.04
2019-01-04T07:32:43.954Z,101040.49
2019-01-04T07:33:45.200Z,101048.89
2019-01-04T07:34:46.320Z,101036.81
2019-01-04T07:35:47.521Z,101047.41
2019-01-04T07:36:48.638Z,101042.86
2019-01-04T07:37:49.749Z,101040.18
2019-01-04T07:38:51.004Z,101032.47
2019-01-04T07:39:52.423Z,101034.67
2019-01-04T07:40:53.542Z,101037.70
2019-01-04T07:41:54.761Z,101031.33
2019-01-04T07:42:55.877Z,101027.78
2019-01-04T07:43:57.013Z,101030.33
2019-01-04T07:44:58.129Z,101029.50
2019-01-04T07:45:59.240Z,101021.78
2019-01-04T07:47:00.397Z,101026.64
2019-01-04T07:48:01.460Z,101017.58
2019-01-04T07:49:02.585Z,101019.78
2019-01-04T07:50:05.499Z,101023.81
2019-01-04T07:51:06.612Z,101024.16
2019-01-04T07:52:07.730Z,101021.13
2019-01-04T07:53:08.949Z,101021.95
2019-01-04T07:54:10.263Z,101024.50
2019-01-04T07:55:11.368Z,101027.19
2019-01-04T07:56:12.480Z,101028.52
2019-01-04T07:57:13.602Z,101019.13
2019-01-04T07:58:14.715Z,101016.44
2019-01-04T07:59:15.849Z,101019.95
2019-01-04T08:00:17.061Z,101019.13
2019-01-04T08:01:18.178Z,101023.16
2019-01-04T08:02:39.011Z,101021.64
2019-01-04T08:03:40.346Z,101015.09
2019-01-04T08:04:41.478Z,101018.27
2019-01-04T08:05:42.598Z,101016.09
2019-01-04T08:06:43.710Z,101020.47
2019-01-04T08:07:44.824Z,101017.44
2019-01-04T08:08:45.950Z,101018.78
2019-01-04T08:09:47.230Z,101022.47
2019-01-04T08:10:48.345Z,101016.44
2019-01-04T08:11:49.462Z,101019.13
2019-01-04T08:12:50.574Z,101018.78
2019-01-04T08:13:51.691Z,101022.64
2019-01-04T08:14:52.824Z,101016.09
2019-01-04T08:15:53.936Z,101008.38
2019-01-04T08:16:55.048Z,101008.38
2019-01-04T08:17:56.169Z,101014.58
2019-01-04T08:18:57.286Z,101007.04
2019-01-04T08:19:58.564Z,101012.75
2019-01-04T08:20:59.673Z,101011.06
2019-01-04T08:22:00.788Z,101007.38
2019-01-04T08:23:01.909Z,101006.86
2019-01-04T08:24:03.042Z,101005.52
2019-01-04T08:25:05.068Z,101004.69
2019-01-04T08:26:06.175Z,101007.72
2019-01-04T08:27:07.290Z,101010.06
2019-01-04T08:28:08.504Z,101006.86
2019-01-04T08:29:10.787Z,100997.98
2019-01-04T08:30:12.624Z,101002.34
2019-01-04T08:31:13.733Z,101005.52
2019-01-04T08:32:14.839Z,101002.01
2019-01-04T08:33:15.954Z,101005.52
2019-01-04T08:34:17.357Z,100999.32
2019-01-04T08:35:18.644Z,101005.03
2019-01-04T08:36:19.758Z,101000.15
2019-01-04T08:37:20.872Z,101010.06
2019-01-04T08:38:22.088Z,101004.69
2019-01-04T08:39:23.200Z,101006.04
2019-01-04T08:40:24.327Z,101005.03
2019-01-04T08:41:25.572Z,101002.83
2019-01-04T08:42:26.669Z,101005.38
2019-01-04T08:43:27.786Z,101005.38
2019-01-04T08:44:28.897Z,101001.34
2019-01-04T08:45:30.128Z,101003.03
2019-01-04T08:46:31.244Z,100996.80
2019-01-04T08:47:32.359Z,101002.52
2019-01-04T08:48:33.482Z,100995.80
2019-01-04T08:49:34.590Z,100995.80
2019-01-04T08:50:35.712Z,100990.95
2019-01-04T08:51:36.824Z,100998.48
2019-01-04T08:52:38.032Z,100998.34
2019-01-04T08:53:56.465Z,100993.97
2019-01-04T08:54:57.579Z,100995.31
2019-01-04T08:55:58.707Z,100993.97
2019-01-04T08:56:59.825Z,100995.31
2019-01-04T08:58:00.932Z,100991.28
2019-01-04T08:59:02.044Z,100993.97
2019-01-04T09:00:06.960Z,100987.94
2019-01-04T09:01:08.192Z,100986.25
2019-01-04T09:02:09.436Z,100984.57
2019-01-04T09:03:10.552Z,100974.31
2019-01-04T09:04:11.668Z,100980.88
2019-01-04T09:05:12.779Z,100983.05
2019-01-04T09:06:13.903Z,100984.39
2019-01-04T09:07:15.011Z,100978.20
2019-01-04T09:08:16.130Z,100975.51
2019-01-04T09:09:17.344Z,100984.39
2019-01-04T09:10:18.452Z,100986.25
2019-01-04T09:11:19.581Z,100980.88
2019-01-04T09:12:20.798Z,100980.37
2019-01-04T09:13:21.916Z,100975.51
2019-01-04T09:14:23.028Z,100971.14
2019-01-04T09:15:24.142Z,100972.83
2019-01-04T09:16:25.271Z,100970.48
2019-01-04T09:17:26.392Z,100966.45
2019-01-04T09:18:27.507Z,100969.13
2019-01-04T09:19:28.615Z,100962.91
2019-01-04T09:20:29.836Z,100965.94
2019-01-04T09:21:30.968Z,100965.11
2019-01-04T09:22:32.088Z,100964.10
2019-01-04T09:23:33.212Z,100956.53
2019-01-04T09:24:34.327Z,100960.08
2019-01-04T09:25:35.440Z,100959.07
2019-01-04T09:26:36.717Z,100958.21
2019-01-04T09:27:38.889Z,100958.55
2019-01-04T09:28:40.152Z,100954.52
2019-01-04T09:29:41.261Z,100954.04
2019-01-04T09:30:42.503Z,100954.52
2019-01-04T09:31:43.629Z,100921.16
2019-01-04T09:32:44.742Z,100952.70
2019-01-04T09:33:45.857Z,100950.35
2019-01-04T09:34:46.989Z,100948.16
2019-01-04T09:35:48.119Z,100946.80
2019-01-04T09:36:49.588Z,100944.98
2019-01-04T09:37:50.708Z,100947.66
2019-01-04T09:38:51.819Z,100939.09
2019-01-04T09:39:53.036Z,100932.37
2019-01-04T09:41:29.089Z,100935.05
2019-01-04T09:42:30.215Z,100934.58
2019-01-04T09:43:31.330Z,100933.23
2019-01-04T09:44:32.448Z,100935.91
2019-01-04T09:45:33.566Z,100938.60
2019-01-04T09:46:34.677Z,100937.26
2019-01-04T09:47:36.153Z,100931.88
2019-01-04T09:48:37.270Z,100938.60
2019-01-04T09:49:38.381Z,100941.11
2019-01-04T09:50:39.603Z,100938.94
2019-01-04T09:51:41.872Z,100936.26
2019-01-04T09:52:43.076Z,100936.74
2019-01-04T09:53:44.189Z,100935.73
2019-01-04T09:54:45.302Z,100937.94
2019-01-04T09:55:46.969Z,100929.88
2019-01-04T09:56:48.227Z,100931.22
2019-01-04T09:57:49.742Z,100929.54
2019-01-04T09:58:50.857Z,100933.57
2019-01-04T09:59:52.076Z,100932.23
2019-01-04T10:00:53.188Z,100929.54
2019-01-04T10:01:54.300Z,100936.26
2019-01-04T10:02:55.712Z,100934.91
2019-01-04T10:03:56.826Z,100935.40
2019-01-04T10:04:57.943Z,100931.02
2019-01-04T10:05:59.057Z,100930.20
2019-01-04T10:07:00.171Z,100927.52
2019-01-04T10:08:07.077Z,100927.17
2019-01-04T10:09:08.181Z,100931.20
2019-01-04T10:10:09.493Z,100933.89
2019-01-04T10:11:10.607Z,100934.89
2019-01-04T10:12:11.728Z,100936.23
2019-01-04T10:13:12.993Z,100925.48
2019-01-04T10:14:14.142Z,100936.23
2019-01-04T10:15:15.254Z,100930.86
2019-01-04T10:16:16.363Z,100930.34
2019-01-04T10:17:17.480Z,100927.84
2019-01-04T10:18:18.613Z,100930.86
2019-01-04T10:19:19.726Z,100925.97
2019-01-04T10:20:20.844Z,100928.17
2019-01-04T10:21:22.065Z,100920.27
2019-01-04T10:22:23.184Z,100921.13
2019-01-04T10:23:24.528Z,100925.48
2019-01-04T10:24:25.636Z,100925.48
2019-01-04T10:25:26.760Z,100921.80
2019-01-04T10:26:27.975Z,100920.45
2019-01-04T10:27:29.193Z,100922.28
2019-01-04T10:28:30.343Z,100923.97
2019-01-04T10:29:31.459Z,100919.12
2019-01-04T10:30:32.571Z,100923.48
2019-01-04T10:31:33.688Z,100915.77
2019-01-04T10:32:34.804Z,100927.00
2019-01-04T10:33:36.376Z,100925.17
2019-01-04T10:34:38.032Z,100921.14
2019-01-04T10:35:39.437Z,100921.48
2019-01-04T10:36:40.552Z,100920.14
2019-01-04T10:37:41.674Z,100921.48
2019-01-04T10:38:42.955Z,100916.45
2019-01-04T10:39:44.172Z,100916.93
2019-01-04T10:40:45.288Z,100913.42
2019-01-04T10:41:46.513Z,100913.76
2019-01-04T10:42:47.628Z,100913.76
2019-01-04T10:43:48.940Z,100914.10
2019-01-04T10:44:50.053Z,100907.38
2019-01-04T10:45:51.171Z,100908.73
2019-01-04T10:46:52.387Z,100905.03
2019-01-04T10:47:53.597Z,100902.50
2019-01-04T10:48:54.724Z,100903.69
2019-01-04T10:49:55.838Z,100905.89
2019-01-04T10:50:56.952Z,100903.69
2019-01-04T10:51:58.068Z,100905.03
2019-01-04T10:52:59.305Z,100899.66
2019-01-04T10:54:00.691Z,100905.38
2019-01-04T10:55:01.801Z,100902.69
2019-01-04T10:56:02.913Z,100906.38
2019-01-04T10:57:04.120Z,100903.69
2019-01-04T10:58:06.022Z,100900.00
2019-01-04T10:59:07.174Z,100903.20
2019-01-04T11:00:09.588Z,100901.87
2019-01-04T11:01:10.693Z,100907.23
2019-01-04T11:02:11.807Z,100902.34
2019-01-04T11:03:12.925Z,100892.61
2019-01-04T11:04:14.271Z,100897.98
2019-01-04T11:05:15.386Z,100893.95
2019-01-04T11:06:16.505Z,100888.23
2019-01-04T11:07:17.725Z,100886.89
2019-01-04T11:08:18.837Z,100890.58
2019-01-04T11:09:19.964Z,100889.23
2019-01-04T11:10:21.080Z,100888.37
2019-01-04T11:11:22.192Z,100893.41
2019-01-04T11:12:23.412Z,100888.22
2019-01-04T11:13:24.529Z,100889.91
2019-01-04T11:14:25.678Z,100890.05
2019-01-04T11:15:26.892Z,100887.36
2019-01-04T11:16:28.003Z,100894.94
2019-01-04T11:17:29.120Z,100886.53
2019-01-04T11:18:30.238Z,100889.22
2019-01-04T11:19:31.366Z,100888.70
2019-01-04T11:20:40.123Z,100882.99
2019-01-04T11:21:41.237Z,100882.99
2019-01-04T11:22:55.012Z,100878.63
2019-01-04T11:24:18.188Z,100884.85
2019-01-04T11:25:55.094Z,100884.85
2019-01-04T11:26:56.312Z,100885.00
2019-01-04T11:28:01.146Z,100880.14
2019-01-04T11:29:29.017Z,100882.49
2019-01-04T11:30:33.735Z,100887.00
2019-01-04T11:32:03.426Z,100879.12
2019-01-04T11:33:05.142Z,100877.78
2019-01-04T11:34:26.780Z,100882.47
2019-01-04T11:35:34.706Z,100878.92
2019-01-04T11:36:54.625Z,100877.25
2019-01-04T11:38:11.410Z,100876.42
2019-01-04T11:39:19.312Z,100875.08
2019-01-04T11:40:26.755Z,100875.56
2019-01-04T11:42:05.432Z,100871.19
2019-01-04T11:43:13.192Z,100873.39
2019-01-04T11:44:33.265Z,100867.16
2019-01-04T11:45:46.929Z,100869.51
2019-01-04T11:46:51.661Z,100877.08
2019-01-04T11:48:11.497Z,100879.77
2019-01-04T11:49:22.377Z,100879.77
2019-01-04T11:50:35.858Z,100878.09
2019-01-04T11:51:51.937Z,100881.59
2019-01-04T11:52:53.250Z,100886.48
2019-01-04T11:53:54.361Z,100881.94
2019-01-04T11:54:56.175Z,100884.96
2019-01-04T11:55:57.290Z,100885.30
2019-01-04T11:56:58.414Z,100883.81
2019-01-04T11:57:59.532Z,100891.02
2019-01-04T11:59:00.649Z,100891.02
2019-01-04T12:00:03.373Z,100891.21
2019-01-04T12:01:04.482Z,100892.55